sensor_id;sensor_type;location;lat;lon;timestamp;P1;durP1;ratioP1;P2;durP2;ratioP2
71566;SDS011;59403;47.456;19.120;2023-12-22T00:01:09;15.75;;;7.80;;
71566;SDS011;59403;47.456;19.120;2023-12-22T00:03:36;12.68;;;7.00;;
71566;SDS011;59403;47.456;19.120;2023-12-22T00:06:03;13.83;;;7.10;;
71566;SDS011;59403;47.456;19.120;2023-12-22T00:08:31;16.73;;;8.70;;
71566;SDS011;59403;47.456;19.120;2023-12-22T00:10:58;22.85;;;11.63;;
71566;SDS011;59403;47.456;19.120;2023-12-22T00:13:25;18.70;;;10.98;;
71566;SDS011;59403;47.456;19.120;2023-12-22T00:15:51;23.30;;;12.95;;
71566;SDS011;59403;47.456;19.120;2023-12-22T00:18:18;23.60;;;12.90;;
71566;SDS011;59403;47.456;19.120;2023-12-22T00:20:45;22.50;;;12.35;;
71566;SDS011;59403;47.456;19.120;2023-12-22T00:23:11;23.60;;;13.23;;
71566;SDS011;59403;47.456;19.120;2023-12-22T00:25:39;25.08;;;13.55;;
71566;SDS011;59403;47.456;19.120;2023-12-22T00:28:06;27.02;;;14.32;;
71566;SDS011;59403;47.456;19.120;2023-12-22T00:30:33;27.47;;;14.67;;
71566;SDS011;59403;47.456;19.120;2023-12-22T00:32:59;25.60;;;14.07;;
71566;SDS011;59403;47.456;19.120;2023-12-22T00:35:26;27.20;;;15.43;;
71566;SDS011;59403;47.456;19.120;2023-12-22T00:37:53;28.35;;;14.68;;
71566;SDS011;59403;47.456;19.120;2023-12-22T00:40:19;27.90;;;15.68;;
71566;SDS011;59403;47.456;19.120;2023-12-22T00:42:47;29.80;;;16.13;;
71566;SDS011;59403;47.456;19.120;2023-12-22T00:45:14;30.77;;;16.02;;
71566;SDS011;59403;47.456;19.120;2023-12-22T00:47:41;27.58;;;15.45;;
71566;SDS011;59403;47.456;19.120;2023-12-22T00:50:07;25.65;;;14.95;;
71566;SDS011;59403;47.456;19.120;2023-12-22T00:52:34;25.75;;;14.52;;
71566;SDS011;59403;47.456;19.120;2023-12-22T00:55:01;23.93;;;13.50;;
71566;SDS011;59403;47.456;19.120;2023-12-22T00:57:28;21.73;;;11.95;;
71566;SDS011;59403;47.456;19.120;2023-12-22T00:59:56;17.08;;;9.85;;
71566;SDS011;59403;47.456;19.120;2023-12-22T01:02:23;19.10;;;10.23;;
71566;SDS011;59403;47.456;19.120;2023-12-22T01:04:49;18.60;;;10.65;;
71566;SDS011;59403;47.456;19.120;2023-12-22T01:07:16;19.17;;;9.53;;
71566;SDS011;59403;47.456;19.120;2023-12-22T01:09:43;16.52;;;8.82;;
71566;SDS011;59403;47.456;19.120;2023-12-22T01:12:10;13.57;;;7.82;;
71566;SDS011;59403;47.456;19.120;2023-12-22T01:14:37;13.15;;;7.57;;
71566;SDS011;59403;47.456;19.120;2023-12-22T01:17:05;13.90;;;7.18;;
71566;SDS011;59403;47.456;19.120;2023-12-22T01:19:32;13.43;;;6.13;;
71566;SDS011;59403;47.456;19.120;2023-12-22T01:21:59;9.82;;;5.10;;
71566;SDS011;59403;47.456;19.120;2023-12-22T01:24:25;9.20;;;4.55;;
71566;SDS011;59403;47.456;19.120;2023-12-22T01:26:52;7.97;;;4.07;;
71566;SDS011;59403;47.456;19.120;2023-12-22T01:29:19;10.73;;;4.85;;
71566;SDS011;59403;47.456;19.120;2023-12-22T01:31:45;7.60;;;4.33;;
71566;SDS011;59403;47.456;19.120;2023-12-22T01:34:13;6.37;;;3.85;;
71566;SDS011;59403;47.456;19.120;2023-12-22T01:36:40;7.75;;;3.90;;
71566;SDS011;59403;47.456;19.120;2023-12-22T01:39:07;7.35;;;3.42;;
71566;SDS011;59403;47.456;19.120;2023-12-22T01:41:34;6.00;;;3.47;;
71566;SDS011;59403;47.456;19.120;2023-12-22T01:44:01;6.00;;;3.00;;
71566;SDS011;59403;47.456;19.120;2023-12-22T01:46:27;7.28;;;3.10;;
71566;SDS011;59403;47.456;19.120;2023-12-22T01:48:54;6.18;;;3.05;;
71566;SDS011;59403;47.456;19.120;2023-12-22T01:51:22;6.45;;;2.90;;
71566;SDS011;59403;47.456;19.120;2023-12-22T01:53:49;5.68;;;2.92;;
71566;SDS011;59403;47.456;19.120;2023-12-22T01:56:17;4.57;;;2.30;;
71566;SDS011;59403;47.456;19.120;2023-12-22T01:58:44;4.40;;;2.53;;
71566;SDS011;59403;47.456;19.120;2023-12-22T02:01:11;5.78;;;2.55;;
71566;SDS011;59403;47.456;19.120;2023-12-22T02:03:38;5.85;;;2.45;;
71566;SDS011;59403;47.456;19.120;2023-12-22T02:06:05;6.20;;;2.40;;
71566;SDS011;59403;47.456;19.120;2023-12-22T02:08:33;4.83;;;2.10;;
71566;SDS011;59403;47.456;19.120;2023-12-22T02:11:01;3.87;;;1.60;;
71566;SDS011;59403;47.456;19.120;2023-12-22T02:13:27;4.65;;;2.25;;
71566;SDS011;59403;47.456;19.120;2023-12-22T02:15:56;4.57;;;1.92;;
71566;SDS011;59403;47.456;19.120;2023-12-22T02:18:30;4.05;;;2.10;;
71566;SDS011;59403;47.456;19.120;2023-12-22T02:21:01;3.63;;;1.90;;
71566;SDS011;59403;47.456;19.120;2023-12-22T02:23:30;3.53;;;1.73;;
71566;SDS011;59403;47.456;19.120;2023-12-22T02:25:57;2.97;;;1.67;;
71566;SDS011;59403;47.456;19.120;2023-12-22T02:28:30;3.25;;;1.40;;
71566;SDS011;59403;47.456;19.120;2023-12-22T02:31:00;3.10;;;1.55;;
71566;SDS011;59403;47.456;19.120;2023-12-22T02:33:30;3.20;;;1.20;;
71566;SDS011;59403;47.456;19.120;2023-12-22T02:36:01;2.58;;;1.15;;
71566;SDS011;59403;47.456;19.120;2023-12-22T02:38:31;2.80;;;1.10;;
71566;SDS011;59403;47.456;19.120;2023-12-22T02:40:59;2.53;;;1.10;;
71566;SDS011;59403;47.456;19.120;2023-12-22T02:43:27;3.58;;;1.02;;
71566;SDS011;59403;47.456;19.120;2023-12-22T02:45:54;2.23;;;1.07;;
71566;SDS011;59403;47.456;19.120;2023-12-22T02:48:20;3.03;;;1.20;;
71566;SDS011;59403;47.456;19.120;2023-12-22T02:50:48;2.67;;;1.08;;
71566;SDS011;59403;47.456;19.120;2023-12-22T02:53:15;3.05;;;1.08;;
71566;SDS011;59403;47.456;19.120;2023-12-22T02:55:43;3.50;;;1.30;;
71566;SDS011;59403;47.456;19.120;2023-12-22T02:58:09;2.27;;;0.90;;
71566;SDS011;59403;47.456;19.120;2023-12-22T03:00:36;2.78;;;1.25;;
71566;SDS011;59403;47.456;19.120;2023-12-22T03:03:03;1.83;;;0.80;;
71566;SDS011;59403;47.456;19.120;2023-12-22T03:05:30;3.17;;;1.00;;
71566;SDS011;59403;47.456;19.120;2023-12-22T03:07:56;2.25;;;0.82;;
71566;SDS011;59403;47.456;19.120;2023-12-22T03:10:23;1.80;;;0.70;;
71566;SDS011;59403;47.456;19.120;2023-12-22T03:12:51;2.90;;;0.77;;
71566;SDS011;59403;47.456;19.120;2023-12-22T03:15:18;2.15;;;0.60;;
71566;SDS011;59403;47.456;19.120;2023-12-22T03:17:44;2.47;;;0.65;;
71566;SDS011;59403;47.456;19.120;2023-12-22T03:20:11;1.83;;;0.70;;
71566;SDS011;59403;47.456;19.120;2023-12-22T03:22:38;2.07;;;0.50;;
71566;SDS011;59403;47.456;19.120;2023-12-22T03:25:05;2.33;;;0.50;;
71566;SDS011;59403;47.456;19.120;2023-12-22T03:27:32;2.30;;;0.40;;
71566;SDS011;59403;47.456;19.120;2023-12-22T03:30:00;1.67;;;0.40;;
71566;SDS011;59403;47.456;19.120;2023-12-22T03:32:26;2.62;;;0.75;;
71566;SDS011;59403;47.456;19.120;2023-12-22T03:34:53;1.77;;;0.70;;
71566;SDS011;59403;47.456;19.120;2023-12-22T03:37:20;1.90;;;0.60;;
71566;SDS011;59403;47.456;19.120;2023-12-22T03:39:46;1.10;;;0.40;;
71566;SDS011;59403;47.456;19.120;2023-12-22T03:42:13;2.33;;;0.80;;
71566;SDS011;59403;47.456;19.120;2023-12-22T03:44:40;1.35;;;0.60;;
71566;SDS011;59403;47.456;19.120;2023-12-22T03:47:08;1.80;;;0.30;;
71566;SDS011;59403;47.456;19.120;2023-12-22T03:49:34;2.65;;;0.40;;
71566;SDS011;59403;47.456;19.120;2023-12-22T03:52:01;1.85;;;0.40;;
71566;SDS011;59403;47.456;19.120;2023-12-22T03:54:27;1.25;;;0.20;;
71566;SDS011;59403;47.456;19.120;2023-12-22T03:56:54;1.67;;;0.20;;
71566;SDS011;59403;47.456;19.120;2023-12-22T03:59:21;3.93;;;0.20;;
71566;SDS011;59403;47.456;19.120;2023-12-22T04:01:50;2.65;;;0.35;;
71566;SDS011;59403;47.456;19.120;2023-12-22T04:04:19;3.53;;;0.50;;
71566;SDS011;59403;47.456;19.120;2023-12-22T04:06:47;2.15;;;0.20;;
71566;SDS011;59403;47.456;19.120;2023-12-22T04:09:13;2.30;;;0.30;;
71566;SDS011;59403;47.456;19.120;2023-12-22T04:11:40;2.77;;;0.27;;
71566;SDS011;59403;47.456;19.120;2023-12-22T04:14:07;2.35;;;0.40;;
71566;SDS011;59403;47.456;19.120;2023-12-22T04:16:35;2.25;;;0.30;;
71566;SDS011;59403;47.456;19.120;2023-12-22T04:19:02;1.90;;;0.20;;
71566;SDS011;59403;47.456;19.120;2023-12-22T04:21:30;5.55;;;0.40;;
71566;SDS011;59403;47.456;19.120;2023-12-22T04:23:57;3.57;;;0.27;;
71566;SDS011;59403;47.456;19.120;2023-12-22T04:26:23;2.78;;;0.35;;
71566;SDS011;59403;47.456;19.120;2023-12-22T04:28:50;1.05;;;0.20;;
71566;SDS011;59403;47.456;19.120;2023-12-22T04:31:16;2.67;;;0.20;;
71566;SDS011;59403;47.456;19.120;2023-12-22T04:33:43;1.62;;;0.30;;
71566;SDS011;59403;47.456;19.120;2023-12-22T04:36:10;1.03;;;0.20;;
71566;SDS011;59403;47.456;19.120;2023-12-22T04:38:38;1.95;;;0.30;;
71566;SDS011;59403;47.456;19.120;2023-12-22T04:41:05;1.08;;;0.20;;
71566;SDS011;59403;47.456;19.120;2023-12-22T04:43:32;3.42;;;0.30;;
71566;SDS011;59403;47.456;19.120;2023-12-22T04:45:59;3.10;;;0.30;;
71566;SDS011;59403;47.456;19.120;2023-12-22T04:48:25;3.23;;;0.23;;
71566;SDS011;59403;47.456;19.120;2023-12-22T04:50:52;3.20;;;0.37;;
71566;SDS011;59403;47.456;19.120;2023-12-22T04:53:19;2.10;;;0.30;;
71566;SDS011;59403;47.456;19.120;2023-12-22T04:55:47;1.37;;;0.20;;
71566;SDS011;59403;47.456;19.120;2023-12-22T04:58:13;2.75;;;0.28;;
71566;SDS011;59403;47.456;19.120;2023-12-22T05:00:40;3.63;;;0.30;;
71566;SDS011;59403;47.456;19.120;2023-12-22T05:03:07;1.77;;;0.20;;
71566;SDS011;59403;47.456;19.120;2023-12-22T05:05:34;7.50;;;0.47;;
71566;SDS011;59403;47.456;19.120;2023-12-22T05:08:00;1.23;;;0.10;;
71566;SDS011;59403;47.456;19.120;2023-12-22T05:10:27;2.95;;;0.40;;
71566;SDS011;59403;47.456;19.120;2023-12-22T05:12:55;2.23;;;0.43;;
71566;SDS011;59403;47.456;19.120;2023-12-22T05:15:22;1.30;;;0.20;;
71566;SDS011;59403;47.456;19.120;2023-12-22T05:17:49;2.10;;;0.30;;
71566;SDS011;59403;47.456;19.120;2023-12-22T05:20:15;3.22;;;0.50;;
71566;SDS011;59403;47.456;19.120;2023-12-22T05:22:42;4.75;;;0.30;;
71566;SDS011;59403;47.456;19.120;2023-12-22T05:25:09;2.90;;;0.30;;
71566;SDS011;59403;47.456;19.120;2023-12-22T05:27:36;5.85;;;0.60;;
71566;SDS011;59403;47.456;19.120;2023-12-22T05:30:04;1.95;;;0.30;;
71566;SDS011;59403;47.456;19.120;2023-12-22T05:32:32;1.50;;;0.20;;
71566;SDS011;59403;47.456;19.120;2023-12-22T05:34:58;1.08;;;0.20;;
71566;SDS011;59403;47.456;19.120;2023-12-22T05:37:25;2.23;;;0.27;;
71566;SDS011;59403;47.456;19.120;2023-12-22T05:39:52;2.87;;;0.43;;
71566;SDS011;59403;47.456;19.120;2023-12-22T05:42:18;2.83;;;0.40;;
71566;SDS011;59403;47.456;19.120;2023-12-22T05:44:45;4.28;;;0.20;;
71566;SDS011;59403;47.456;19.120;2023-12-22T05:47:16;1.90;;;0.30;;
71566;SDS011;59403;47.456;19.120;2023-12-22T05:49:43;3.43;;;0.30;;
71566;SDS011;59403;47.456;19.120;2023-12-22T05:52:10;4.05;;;0.40;;
71566;SDS011;59403;47.456;19.120;2023-12-22T05:54:38;3.12;;;0.45;;
71566;SDS011;59403;47.456;19.120;2023-12-22T05:57:04;3.92;;;0.50;;
71566;SDS011;59403;47.456;19.120;2023-12-22T05:59:32;2.45;;;0.30;;
71566;SDS011;59403;47.456;19.120;2023-12-22T06:01:59;3.77;;;0.50;;
71566;SDS011;59403;47.456;19.120;2023-12-22T06:04:29;3.15;;;0.68;;
71566;SDS011;59403;47.456;19.120;2023-12-22T06:06:55;3.12;;;0.60;;
71566;SDS011;59403;47.456;19.120;2023-12-22T06:09:22;2.45;;;0.40;;
71566;SDS011;59403;47.456;19.120;2023-12-22T06:11:49;3.78;;;0.70;;
71566;SDS011;59403;47.456;19.120;2023-12-22T06:14:15;4.40;;;0.60;;
71566;SDS011;59403;47.456;19.120;2023-12-22T06:16:42;4.65;;;0.32;;
71566;SDS011;59403;47.456;19.120;2023-12-22T06:19:09;3.47;;;0.50;;
71566;SDS011;59403;47.456;19.120;2023-12-22T06:21:39;2.33;;;0.30;;
71566;SDS011;59403;47.456;19.120;2023-12-22T06:24:06;3.28;;;0.50;;
71566;SDS011;59403;47.456;19.120;2023-12-22T06:26:34;5.23;;;0.47;;
71566;SDS011;59403;47.456;19.120;2023-12-22T06:29:01;4.65;;;0.68;;
71566;SDS011;59403;47.456;19.120;2023-12-22T06:31:28;4.37;;;0.40;;
71566;SDS011;59403;47.456;19.120;2023-12-22T06:33:55;2.67;;;0.40;;
71566;SDS011;59403;47.456;19.120;2023-12-22T06:36:25;4.90;;;0.60;;
71566;SDS011;59403;47.456;19.120;2023-12-22T06:38:53;2.60;;;0.30;;
71566;SDS011;59403;47.456;19.120;2023-12-22T06:41:21;3.08;;;0.55;;
71566;SDS011;59403;47.456;19.120;2023-12-22T06:43:48;1.73;;;0.30;;
71566;SDS011;59403;47.456;19.120;2023-12-22T06:46:16;2.95;;;0.40;;
71566;SDS011;59403;47.456;19.120;2023-12-22T06:48:43;4.72;;;0.30;;
71566;SDS011;59403;47.456;19.120;2023-12-22T06:51:16;3.53;;;0.37;;
71566;SDS011;59403;47.456;19.120;2023-12-22T06:53:43;4.68;;;0.50;;
71566;SDS011;59403;47.456;19.120;2023-12-22T06:56:15;4.18;;;0.47;;
71566;SDS011;59403;47.456;19.120;2023-12-22T06:58:46;2.95;;;0.60;;
71566;SDS011;59403;47.456;19.120;2023-12-22T07:01:17;2.90;;;0.40;;
71566;SDS011;59403;47.456;19.120;2023-12-22T07:03:44;3.83;;;0.40;;
71566;SDS011;59403;47.456;19.120;2023-12-22T07:06:11;7.28;;;1.02;;
71566;SDS011;59403;47.456;19.120;2023-12-22T07:08:38;7.00;;;0.60;;
71566;SDS011;59403;47.456;19.120;2023-12-22T07:11:05;5.35;;;0.77;;
71566;SDS011;59403;47.456;19.120;2023-12-22T07:13:33;5.20;;;1.20;;
71566;SDS011;59403;47.456;19.120;2023-12-22T07:16:00;6.27;;;0.87;;
71566;SDS011;59403;47.456;19.120;2023-12-22T07:18:27;1.67;;;0.50;;
71566;SDS011;59403;47.456;19.120;2023-12-22T07:20:55;3.83;;;0.50;;
71566;SDS011;59403;47.456;19.120;2023-12-22T07:23:22;3.35;;;0.40;;
71566;SDS011;59403;47.456;19.120;2023-12-22T07:25:48;3.85;;;0.30;;
71566;SDS011;59403;47.456;19.120;2023-12-22T07:28:15;4.83;;;0.40;;
71566;SDS011;59403;47.456;19.120;2023-12-22T07:30:43;4.50;;;0.50;;
71566;SDS011;59403;47.456;19.120;2023-12-22T07:33:10;5.70;;;0.90;;
71566;SDS011;59403;47.456;19.120;2023-12-22T07:35:37;4.00;;;0.50;;
71566;SDS011;59403;47.456;19.120;2023-12-22T07:38:03;3.55;;;0.50;;
71566;SDS011;59403;47.456;19.120;2023-12-22T07:40:30;3.17;;;0.40;;
71566;SDS011;59403;47.456;19.120;2023-12-22T07:42:56;5.72;;;0.62;;
71566;SDS011;59403;47.456;19.120;2023-12-22T07:45:23;6.25;;;1.00;;
71566;SDS011;59403;47.456;19.120;2023-12-22T07:47:51;5.65;;;0.65;;
71566;SDS011;59403;47.456;19.120;2023-12-22T07:50:18;4.70;;;0.45;;
71566;SDS011;59403;47.456;19.120;2023-12-22T07:52:46;6.23;;;0.50;;
71566;SDS011;59403;47.456;19.120;2023-12-22T07:55:13;5.07;;;0.57;;
71566;SDS011;59403;47.456;19.120;2023-12-22T07:57:39;6.78;;;0.75;;
71566;SDS011;59403;47.456;19.120;2023-12-22T08:00:07;4.65;;;0.35;;
71566;SDS011;59403;47.456;19.120;2023-12-22T08:02:36;3.72;;;0.45;;
71566;SDS011;59403;47.456;19.120;2023-12-22T08:05:04;5.00;;;0.47;;
71566;SDS011;59403;47.456;19.120;2023-12-22T08:07:31;4.35;;;0.50;;
71566;SDS011;59403;47.456;19.120;2023-12-22T08:09:57;5.05;;;0.50;;
71566;SDS011;59403;47.456;19.120;2023-12-22T08:12:24;4.18;;;0.55;;
71566;SDS011;59403;47.456;19.120;2023-12-22T08:14:51;7.78;;;1.30;;
71566;SDS011;59403;47.456;19.120;2023-12-22T08:17:17;33.10;;;9.10;;
71566;SDS011;59403;47.456;19.120;2023-12-22T08:19:44;8.15;;;1.67;;
71566;SDS011;59403;47.456;19.120;2023-12-22T08:22:12;7.53;;;0.90;;
71566;SDS011;59403;47.456;19.120;2023-12-22T08:24:39;3.10;;;0.55;;
71566;SDS011;59403;47.456;19.120;2023-12-22T08:27:06;4.68;;;0.60;;
71566;SDS011;59403;47.456;19.120;2023-12-22T08:29:33;3.27;;;0.73;;
71566;SDS011;59403;47.456;19.120;2023-12-22T08:32:00;2.50;;;0.62;;
71566;SDS011;59403;47.456;19.120;2023-12-22T08:34:27;3.90;;;0.50;;
71566;SDS011;59403;47.456;19.120;2023-12-22T08:36:54;4.70;;;0.40;;
71566;SDS011;59403;47.456;19.120;2023-12-22T08:39:22;2.53;;;0.60;;
71566;SDS011;59403;47.456;19.120;2023-12-22T08:41:50;3.73;;;0.50;;
71566;SDS011;59403;47.456;19.120;2023-12-22T08:44:16;6.75;;;0.40;;
71566;SDS011;59403;47.456;19.120;2023-12-22T08:46:43;3.53;;;0.40;;
71566;SDS011;59403;47.456;19.120;2023-12-22T08:49:09;1.55;;;0.40;;
71566;SDS011;59403;47.456;19.120;2023-12-22T08:51:36;2.75;;;0.60;;
71566;SDS011;59403;47.456;19.120;2023-12-22T08:54:03;2.43;;;0.50;;
71566;SDS011;59403;47.456;19.120;2023-12-22T08:56:31;2.65;;;0.37;;
71566;SDS011;59403;47.456;19.120;2023-12-22T08:59:00;5.80;;;0.57;;
71566;SDS011;59403;47.456;19.120;2023-12-22T09:01:27;2.08;;;0.40;;
71566;SDS011;59403;47.456;19.120;2023-12-22T09:03:53;7.78;;;0.70;;
71566;SDS011;59403;47.456;19.120;2023-12-22T09:06:20;4.77;;;0.50;;
71566;SDS011;59403;47.456;19.120;2023-12-22T09:08:48;4.40;;;0.50;;
71566;SDS011;59403;47.456;19.120;2023-12-22T09:11:15;4.90;;;1.23;;
71566;SDS011;59403;47.456;19.120;2023-12-22T09:13:45;3.83;;;0.47;;
71566;SDS011;59403;47.456;19.120;2023-12-22T09:16:12;4.87;;;0.60;;
71566;SDS011;59403;47.456;19.120;2023-12-22T09:18:40;4.30;;;0.67;;
71566;SDS011;59403;47.456;19.120;2023-12-22T09:21:07;4.43;;;0.50;;
71566;SDS011;59403;47.456;19.120;2023-12-22T09:23:34;3.47;;;0.82;;
71566;SDS011;59403;47.456;19.120;2023-12-22T09:26:00;2.42;;;0.60;;
71566;SDS011;59403;47.456;19.120;2023-12-22T09:28:27;2.90;;;0.30;;
71566;SDS011;59403;47.456;19.120;2023-12-22T09:30:55;5.27;;;0.87;;
71566;SDS011;59403;47.456;19.120;2023-12-22T09:33:22;4.00;;;0.50;;
71566;SDS011;59403;47.456;19.120;2023-12-22T09:35:48;4.55;;;0.60;;
71566;SDS011;59403;47.456;19.120;2023-12-22T09:38:16;4.62;;;1.27;;
71566;SDS011;59403;47.456;19.120;2023-12-22T09:40:42;3.80;;;0.57;;
71566;SDS011;59403;47.456;19.120;2023-12-22T09:43:09;5.17;;;0.40;;
71566;SDS011;59403;47.456;19.120;2023-12-22T09:45:40;5.25;;;0.57;;
71566;SDS011;59403;47.456;19.120;2023-12-22T09:48:09;5.68;;;0.45;;
71566;SDS011;59403;47.456;19.120;2023-12-22T09:50:42;3.10;;;0.30;;
71566;SDS011;59403;47.456;19.120;2023-12-22T09:53:09;2.97;;;0.45;;
71566;SDS011;59403;47.456;19.120;2023-12-22T09:55:37;2.40;;;0.30;;
71566;SDS011;59403;47.456;19.120;2023-12-22T09:58:04;1.98;;;0.40;;
71566;SDS011;59403;47.456;19.120;2023-12-22T10:00:34;4.85;;;0.40;;
71566;SDS011;59403;47.456;19.120;2023-12-22T10:03:03;3.05;;;0.40;;
71566;SDS011;59403;47.456;19.120;2023-12-22T10:05:33;3.72;;;0.60;;
71566;SDS011;59403;47.456;19.120;2023-12-22T10:08:00;2.07;;;0.33;;
71566;SDS011;59403;47.456;19.120;2023-12-22T10:10:28;2.47;;;0.32;;
71566;SDS011;59403;47.456;19.120;2023-12-22T10:12:55;2.22;;;0.50;;
71566;SDS011;59403;47.456;19.120;2023-12-22T10:15:23;3.47;;;0.60;;
71566;SDS011;59403;47.456;19.120;2023-12-22T10:17:50;2.28;;;0.40;;
71566;SDS011;59403;47.456;19.120;2023-12-22T10:20:17;2.67;;;0.30;;
71566;SDS011;59403;47.456;19.120;2023-12-22T10:22:45;3.08;;;0.70;;
71566;SDS011;59403;47.456;19.120;2023-12-22T10:25:14;1.55;;;0.40;;
71566;SDS011;59403;47.456;19.120;2023-12-22T10:27:42;2.67;;;0.30;;
71566;SDS011;59403;47.456;19.120;2023-12-22T10:30:09;3.20;;;0.40;;
71566;SDS011;59403;47.456;19.120;2023-12-22T10:32:39;3.87;;;0.30;;
71566;SDS011;59403;47.456;19.120;2023-12-22T10:35:06;1.58;;;0.30;;
71566;SDS011;59403;47.456;19.120;2023-12-22T10:37:33;3.65;;;0.30;;
71566;SDS011;59403;47.456;19.120;2023-12-22T10:40:05;3.05;;;0.37;;
71566;SDS011;59403;47.456;19.120;2023-12-22T10:42:32;3.97;;;0.62;;
71566;SDS011;59403;47.456;19.120;2023-12-22T10:45:00;2.43;;;0.30;;
71566;SDS011;59403;47.456;19.120;2023-12-22T10:47:27;2.47;;;0.30;;
71566;SDS011;59403;47.456;19.120;2023-12-22T10:49:54;3.00;;;0.30;;
71566;SDS011;59403;47.456;19.120;2023-12-22T10:52:20;4.82;;;0.40;;
71566;SDS011;59403;47.456;19.120;2023-12-22T10:54:48;2.90;;;0.40;;
71566;SDS011;59403;47.456;19.120;2023-12-22T10:57:18;2.77;;;0.33;;
71566;SDS011;59403;47.456;19.120;2023-12-22T10:59:45;2.10;;;0.30;;
71566;SDS011;59403;47.456;19.120;2023-12-22T11:02:14;2.62;;;0.30;;
71566;SDS011;59403;47.456;19.120;2023-12-22T11:04:43;2.60;;;0.30;;
71566;SDS011;59403;47.456;19.120;2023-12-22T11:07:15;2.30;;;0.40;;
71566;SDS011;59403;47.456;19.120;2023-12-22T11:09:44;1.90;;;0.27;;
71566;SDS011;59403;47.456;19.120;2023-12-22T11:12:15;1.62;;;0.40;;
71566;SDS011;59403;47.456;19.120;2023-12-22T11:14:45;2.62;;;0.40;;
71566;SDS011;59403;47.456;19.120;2023-12-22T11:17:16;1.25;;;0.20;;
71566;SDS011;59403;47.456;19.120;2023-12-22T11:19:44;3.10;;;0.40;;
71566;SDS011;59403;47.456;19.120;2023-12-22T11:22:13;1.77;;;0.30;;
71566;SDS011;59403;47.456;19.120;2023-12-22T11:24:42;3.28;;;0.40;;
71566;SDS011;59403;47.456;19.120;2023-12-22T11:27:10;2.83;;;0.45;;
71566;SDS011;59403;47.456;19.120;2023-12-22T11:29:40;1.98;;;0.30;;
71566;SDS011;59403;47.456;19.120;2023-12-22T11:32:07;1.90;;;0.40;;
71566;SDS011;59403;47.456;19.120;2023-12-22T11:34:36;1.10;;;0.20;;
71566;SDS011;59403;47.456;19.120;2023-12-22T11:37:06;2.05;;;0.43;;
71566;SDS011;59403;47.456;19.120;2023-12-22T11:39:33;2.05;;;0.40;;
71566;SDS011;59403;47.456;19.120;2023-12-22T11:42:00;1.23;;;0.30;;
71566;SDS011;59403;47.456;19.120;2023-12-22T11:44:29;2.50;;;0.30;;
71566;SDS011;59403;47.456;19.120;2023-12-22T11:47:04;2.30;;;0.37;;
71566;SDS011;59403;47.456;19.120;2023-12-22T11:49:32;1.75;;;0.45;;
71566;SDS011;59403;47.456;19.120;2023-12-22T11:51:59;1.90;;;0.47;;
71566;SDS011;59403;47.456;19.120;2023-12-22T11:54:44;2.15;;;0.20;;
71566;SDS011;59403;47.456;19.120;2023-12-22T11:57:32;0.75;;;0.30;;
71566;SDS011;59403;47.456;19.120;2023-12-22T12:00:01;3.33;;;0.40;;
71566;SDS011;59403;47.456;19.120;2023-12-22T12:02:32;0.88;;;0.20;;
71566;SDS011;59403;47.456;19.120;2023-12-22T12:04:59;2.55;;;0.37;;
71566;SDS011;59403;47.456;19.120;2023-12-22T12:07:38;1.45;;;0.32;;
71566;SDS011;59403;47.456;19.120;2023-12-22T12:10:09;1.95;;;0.30;;
71566;SDS011;59403;47.456;19.120;2023-12-22T12:12:36;2.50;;;0.30;;
71566;SDS011;59403;47.456;19.120;2023-12-22T12:15:07;1.50;;;0.50;;
71566;SDS011;59403;47.456;19.120;2023-12-22T12:17:40;1.90;;;0.30;;
71566;SDS011;59403;47.456;19.120;2023-12-22T12:20:08;2.58;;;0.30;;
71566;SDS011;59403;47.456;19.120;2023-12-22T12:22:35;1.00;;;0.20;;
71566;SDS011;59403;47.456;19.120;2023-12-22T12:25:06;1.27;;;0.20;;
71566;SDS011;59403;47.456;19.120;2023-12-22T12:27:34;1.00;;;0.25;;
71566;SDS011;59403;47.456;19.120;2023-12-22T12:30:10;2.60;;;0.77;;
71566;SDS011;59403;47.456;19.120;2023-12-22T12:32:40;3.85;;;0.50;;
71566;SDS011;59403;47.456;19.120;2023-12-22T12:35:10;1.80;;;0.30;;
71566;SDS011;59403;47.456;19.120;2023-12-22T12:37:35;1.60;;;0.20;;
71566;SDS011;59403;47.456;19.120;2023-12-22T12:40:03;1.70;;;0.20;;
71566;SDS011;59403;47.456;19.120;2023-12-22T12:42:34;2.75;;;0.20;;
71566;SDS011;59403;47.456;19.120;2023-12-22T12:45:03;2.47;;;0.40;;
71566;SDS011;59403;47.456;19.120;2023-12-22T12:47:30;1.67;;;0.30;;
71566;SDS011;59403;47.456;19.120;2023-12-22T12:50:01;1.58;;;0.30;;
71566;SDS011;59403;47.456;19.120;2023-12-22T12:52:29;2.08;;;0.30;;
71566;SDS011;59403;47.456;19.120;2023-12-22T12:54:56;1.62;;;0.30;;
71566;SDS011;59403;47.456;19.120;2023-12-22T12:57:23;1.87;;;0.35;;
71566;SDS011;59403;47.456;19.120;2023-12-22T12:59:51;2.07;;;0.20;;
71566;SDS011;59403;47.456;19.120;2023-12-22T13:02:18;1.60;;;0.20;;
71566;SDS011;59403;47.456;19.120;2023-12-22T13:04:45;1.70;;;0.30;;
71566;SDS011;59403;47.456;19.120;2023-12-22T13:07:17;1.75;;;0.40;;
71566;SDS011;59403;47.456;19.120;2023-12-22T13:09:50;2.87;;;0.40;;
71566;SDS011;59403;47.456;19.120;2023-12-22T13:12:19;1.57;;;0.20;;
71566;SDS011;59403;47.456;19.120;2023-12-22T13:14:46;1.23;;;0.30;;
71566;SDS011;59403;47.456;19.120;2023-12-22T13:17:13;1.45;;;0.50;;
71566;SDS011;59403;47.456;19.120;2023-12-22T13:19:40;0.70;;;0.20;;
71566;SDS011;59403;47.456;19.120;2023-12-22T13:22:07;3.20;;;0.80;;
71566;SDS011;59403;47.456;19.120;2023-12-22T13:24:35;1.00;;;0.30;;
71566;SDS011;59403;47.456;19.120;2023-12-22T13:27:02;2.45;;;0.37;;
71566;SDS011;59403;47.456;19.120;2023-12-22T13:29:41;2.03;;;0.62;;
71566;SDS011;59403;47.456;19.120;2023-12-22T13:32:08;3.20;;;0.50;;
71566;SDS011;59403;47.456;19.120;2023-12-22T13:34:36;2.37;;;0.85;;
71566;SDS011;59403;47.456;19.120;2023-12-22T13:37:03;2.73;;;0.30;;
71566;SDS011;59403;47.456;19.120;2023-12-22T13:39:31;1.77;;;0.40;;
71566;SDS011;59403;47.456;19.120;2023-12-22T13:41:59;2.08;;;0.50;;
71566;SDS011;59403;47.456;19.120;2023-12-22T13:44:26;2.37;;;0.30;;
71566;SDS011;59403;47.456;19.120;2023-12-22T13:46:52;4.40;;;0.75;;
71566;SDS011;59403;47.456;19.120;2023-12-22T13:49:19;2.73;;;0.40;;
71566;SDS011;59403;47.456;19.120;2023-12-22T13:51:46;2.67;;;0.30;;
71566;SDS011;59403;47.456;19.120;2023-12-22T13:54:13;1.70;;;0.55;;
71566;SDS011;59403;47.456;19.120;2023-12-22T13:56:40;1.37;;;0.30;;
71566;SDS011;59403;47.456;19.120;2023-12-22T13:59:09;1.33;;;0.50;;
71566;SDS011;59403;47.456;19.120;2023-12-22T14:01:35;1.30;;;0.30;;
71566;SDS011;59403;47.456;19.120;2023-12-22T14:04:03;2.50;;;0.50;;
71566;SDS011;59403;47.456;19.120;2023-12-22T14:06:30;2.15;;;0.47;;
71566;SDS011;59403;47.456;19.120;2023-12-22T14:08:57;1.87;;;0.40;;
71566;SDS011;59403;47.456;19.120;2023-12-22T14:11:24;1.83;;;0.50;;
71566;SDS011;59403;47.456;19.120;2023-12-22T14:13:50;1.67;;;0.30;;
71566;SDS011;59403;47.456;19.120;2023-12-22T14:16:18;2.55;;;0.40;;
71566;SDS011;59403;47.456;19.120;2023-12-22T14:18:45;2.00;;;0.40;;
71566;SDS011;59403;47.456;19.120;2023-12-22T14:21:14;1.58;;;0.30;;
71566;SDS011;59403;47.456;19.120;2023-12-22T14:23:41;2.03;;;0.32;;
71566;SDS011;59403;47.456;19.120;2023-12-22T14:26:10;0.77;;;0.13;;
71566;SDS011;59403;47.456;19.120;2023-12-22T14:28:36;1.45;;;0.20;;
71566;SDS011;59403;47.456;19.120;2023-12-22T14:31:03;3.00;;;0.35;;
71566;SDS011;59403;47.456;19.120;2023-12-22T14:33:31;2.10;;;0.52;;
71566;SDS011;59403;47.456;19.120;2023-12-22T14:35:57;1.60;;;0.62;;